sensor_id;sensor_type;location;lat;lon;timestamp;P1;durP1;ratioP1;P2;durP2;ratioP2
12970;SDS011;6550;48.650;8.774;2023-10-08T00:01:18;4.20;;;2.20;;
12970;SDS011;6550;48.650;8.774;2023-10-08T00:03:48;2.30;;;2.00;;
12970;SDS011;6550;48.650;8.774;2023-10-08T00:06:25;2.43;;;2.00;;
12970;SDS011;6550;48.650;8.774;2023-10-08T00:08:54;3.20;;;2.07;;
12970;SDS011;6550;48.650;8.774;2023-10-08T00:11:26;2.40;;;2.03;;
12970;SDS011;6550;48.650;8.774;2023-10-08T00:13:57;2.37;;;2.00;;
12970;SDS011;6550;48.650;8.774;2023-10-08T00:16:33;2.53;;;2.00;;
12970;SDS011;6550;48.650;8.774;2023-10-08T00:19:08;2.27;;;1.83;;
12970;SDS011;6550;48.650;8.774;2023-10-08T00:21:38;3.23;;;1.90;;
12970;SDS011;6550;48.650;8.774;2023-10-08T00:24:06;2.90;;;1.90;;
12970;SDS011;6550;48.650;8.774;2023-10-08T00:26:35;3.17;;;2.13;;
12970;SDS011;6550;48.650;8.774;2023-10-08T00:29:13;2.30;;;1.80;;
12970;SDS011;6550;48.650;8.774;2023-10-08T00:31:43;4.07;;;1.90;;
12970;SDS011;6550;48.650;8.774;2023-10-08T00:34:19;3.43;;;1.83;;
12970;SDS011;6550;48.650;8.774;2023-10-08T00:36:53;3.33;;;2.23;;
12970;SDS011;6550;48.650;8.774;2023-10-08T00:39:22;2.77;;;1.93;;
12970;SDS011;6550;48.650;8.774;2023-10-08T00:42:02;2.70;;;2.10;;
12970;SDS011;6550;48.650;8.774;2023-10-08T00:44:31;3.67;;;2.23;;
12970;SDS011;6550;48.650;8.774;2023-10-08T00:47:04;2.78;;;2.10;;
12970;SDS011;6550;48.650;8.774;2023-10-08T00:49:32;3.47;;;1.87;;
12970;SDS011;6550;48.650;8.774;2023-10-08T00:52:10;2.70;;;2.07;;
12970;SDS011;6550;48.650;8.774;2023-10-08T00:54:41;4.67;;;1.83;;
12970;SDS011;6550;48.650;8.774;2023-10-08T00:57:15;2.17;;;1.80;;
12970;SDS011;6550;48.650;8.774;2023-10-08T00:59:48;2.30;;;1.93;;
12970;SDS011;6550;48.650;8.774;2023-10-08T01:02:26;1.93;;;1.57;;
12970;SDS011;6550;48.650;8.774;2023-10-08T01:04:55;2.83;;;1.83;;
12970;SDS011;6550;48.650;8.774;2023-10-08T01:07:22;3.23;;;1.97;;
12970;SDS011;6550;48.650;8.774;2023-10-08T01:09:51;6.83;;;2.00;;
12970;SDS011;6550;48.650;8.774;2023-10-08T01:12:23;2.58;;;2.20;;
12970;SDS011;6550;48.650;8.774;2023-10-08T01:15:00;2.83;;;1.97;;
12970;SDS011;6550;48.650;8.774;2023-10-08T01:17:33;2.47;;;1.90;;
12970;SDS011;6550;48.650;8.774;2023-10-08T01:20:12;2.50;;;1.80;;
12970;SDS011;6550;48.650;8.774;2023-10-08T01:23:09;2.63;;;1.97;;
12970;SDS011;6550;48.650;8.774;2023-10-08T01:25:40;2.70;;;1.63;;
12970;SDS011;6550;48.650;8.774;2023-10-08T01:28:09;2.20;;;1.90;;
12970;SDS011;6550;48.650;8.774;2023-10-08T01:30:58;2.50;;;1.90;;
12970;SDS011;6550;48.650;8.774;2023-10-08T01:33:31;3.10;;;1.80;;
12970;SDS011;6550;48.650;8.774;2023-10-08T01:35:58;2.63;;;1.87;;
12970;SDS011;6550;48.650;8.774;2023-10-08T01:38:31;3.03;;;1.73;;
12970;SDS011;6550;48.650;8.774;2023-10-08T01:41:04;2.93;;;1.80;;
12970;SDS011;6550;48.650;8.774;2023-10-08T01:43:46;1.77;;;1.43;;
12970;SDS011;6550;48.650;8.774;2023-10-08T01:46:15;2.03;;;1.70;;
12970;SDS011;6550;48.650;8.774;2023-10-08T01:48:42;5.43;;;1.80;;
12970;SDS011;6550;48.650;8.774;2023-10-08T01:51:11;3.23;;;1.93;;
12970;SDS011;6550;48.650;8.774;2023-10-08T01:53:52;2.63;;;1.80;;
12970;SDS011;6550;48.650;8.774;2023-10-08T01:56:20;3.13;;;1.90;;
12970;SDS011;6550;48.650;8.774;2023-10-08T01:58:50;2.03;;;1.80;;
12970;SDS011;6550;48.650;8.774;2023-10-08T02:01:20;2.13;;;1.57;;
12970;SDS011;6550;48.650;8.774;2023-10-08T02:03:47;3.23;;;2.07;;
12970;SDS011;6550;48.650;8.774;2023-10-08T02:06:17;3.00;;;1.90;;
12970;SDS011;6550;48.650;8.774;2023-10-08T02:08:44;4.77;;;1.87;;
12970;SDS011;6550;48.650;8.774;2023-10-08T02:11:10;3.37;;;1.73;;
12970;SDS011;6550;48.650;8.774;2023-10-08T02:13:37;6.13;;;2.00;;
12970;SDS011;6550;48.650;8.774;2023-10-08T02:16:04;2.13;;;1.87;;
12970;SDS011;6550;48.650;8.774;2023-10-08T02:18:31;3.03;;;2.10;;
12970;SDS011;6550;48.650;8.774;2023-10-08T02:21:02;2.53;;;1.83;;
12970;SDS011;6550;48.650;8.774;2023-10-08T02:23:31;2.28;;;1.90;;
12970;SDS011;6550;48.650;8.774;2023-10-08T02:26:03;2.80;;;2.00;;
12970;SDS011;6550;48.650;8.774;2023-10-08T02:28:34;2.73;;;2.00;;
12970;SDS011;6550;48.650;8.774;2023-10-08T02:31:01;2.77;;;2.00;;
12970;SDS011;6550;48.650;8.774;2023-10-08T02:33:30;2.30;;;2.00;;
12970;SDS011;6550;48.650;8.774;2023-10-08T02:36:02;3.03;;;2.20;;
12970;SDS011;6550;48.650;8.774;2023-10-08T02:38:30;4.00;;;1.83;;
12970;SDS011;6550;48.650;8.774;2023-10-08T02:41:04;2.60;;;1.93;;
12970;SDS011;6550;48.650;8.774;2023-10-08T02:43:37;3.40;;;2.00;;
12970;SDS011;6550;48.650;8.774;2023-10-08T02:46:03;3.13;;;1.70;;
12970;SDS011;6550;48.650;8.774;2023-10-08T02:48:34;2.60;;;1.90;;
12970;SDS011;6550;48.650;8.774;2023-10-08T02:51:03;2.93;;;1.97;;
12970;SDS011;6550;48.650;8.774;2023-10-08T02:53:40;2.60;;;1.70;;
12970;SDS011;6550;48.650;8.774;2023-10-08T02:56:10;2.20;;;2.00;;
12970;SDS011;6550;48.650;8.774;2023-10-08T02:58:40;2.43;;;1.93;;
12970;SDS011;6550;48.650;8.774;2023-10-08T03:01:10;3.43;;;2.17;;
12970;SDS011;6550;48.650;8.774;2023-10-08T03:03:41;2.20;;;1.80;;
12970;SDS011;6550;48.650;8.774;2023-10-08T03:06:09;3.17;;;2.00;;
12970;SDS011;6550;48.650;8.774;2023-10-08T03:08:41;2.10;;;1.77;;
12970;SDS011;6550;48.650;8.774;2023-10-08T03:11:09;2.70;;;2.10;;
12970;SDS011;6550;48.650;8.774;2023-10-08T03:13:43;2.47;;;1.73;;
12970;SDS011;6550;48.650;8.774;2023-10-08T03:16:18;3.33;;;2.20;;
12970;SDS011;6550;48.650;8.774;2023-10-08T03:18:53;2.37;;;1.80;;
12970;SDS011;6550;48.650;8.774;2023-10-08T03:21:23;2.87;;;2.00;;
12970;SDS011;6550;48.650;8.774;2023-10-08T03:24:07;2.63;;;1.70;;
12970;SDS011;6550;48.650;8.774;2023-10-08T03:26:56;2.83;;;1.77;;
12970;SDS011;6550;48.650;8.774;2023-10-08T03:29:38;3.37;;;1.70;;
12970;SDS011;6550;48.650;8.774;2023-10-08T03:32:11;2.70;;;2.00;;
12970;SDS011;6550;48.650;8.774;2023-10-08T03:34:43;2.00;;;1.80;;
12970;SDS011;6550;48.650;8.774;2023-10-08T03:37:16;2.03;;;1.73;;
12970;SDS011;6550;48.650;8.774;2023-10-08T03:39:48;2.93;;;1.87;;
12970;SDS011;6550;48.650;8.774;2023-10-08T03:42:22;3.17;;;1.83;;
12970;SDS011;6550;48.650;8.774;2023-10-08T03:44:52;2.70;;;2.07;;
12970;SDS011;6550;48.650;8.774;2023-10-08T03:47:22;2.43;;;1.90;;
12970;SDS011;6550;48.650;8.774;2023-10-08T03:49:55;1.97;;;1.70;;
12970;SDS011;6550;48.650;8.774;2023-10-08T03:52:22;3.50;;;1.80;;
12970;SDS011;6550;48.650;8.774;2023-10-08T03:54:54;2.50;;;1.83;;
12970;SDS011;6550;48.650;8.774;2023-10-08T03:57:39;3.13;;;2.20;;
12970;SDS011;6550;48.650;8.774;2023-10-08T04:00:10;3.43;;;1.90;;
12970;SDS011;6550;48.650;8.774;2023-10-08T04:02:55;2.50;;;1.77;;
12970;SDS011;6550;48.650;8.774;2023-10-08T04:05:27;4.90;;;2.10;;
12970;SDS011;6550;48.650;8.774;2023-10-08T04:07:59;4.10;;;1.83;;
12970;SDS011;6550;48.650;8.774;2023-10-08T04:10:26;1.73;;;1.43;;
12970;SDS011;6550;48.650;8.774;2023-10-08T04:13:25;3.00;;;1.70;;
12970;SDS011;6550;48.650;8.774;2023-10-08T04:15:52;2.67;;;2.07;;
12970;SDS011;6550;48.650;8.774;2023-10-08T04:18:21;2.17;;;1.93;;
12970;SDS011;6550;48.650;8.774;2023-10-08T04:20:48;3.43;;;2.20;;
12970;SDS011;6550;48.650;8.774;2023-10-08T04:23:27;3.67;;;2.00;;
12970;SDS011;6550;48.650;8.774;2023-10-08T04:25:55;2.70;;;1.83;;
12970;SDS011;6550;48.650;8.774;2023-10-08T04:28:25;2.13;;;1.60;;
12970;SDS011;6550;48.650;8.774;2023-10-08T04:30:55;3.57;;;2.07;;
12970;SDS011;6550;48.650;8.774;2023-10-08T04:33:29;2.90;;;1.87;;
12970;SDS011;6550;48.650;8.774;2023-10-08T04:36:00;3.87;;;1.67;;
12970;SDS011;6550;48.650;8.774;2023-10-08T04:38:30;3.17;;;1.93;;
12970;SDS011;6550;48.650;8.774;2023-10-08T04:41:03;3.00;;;2.00;;
12970;SDS011;6550;48.650;8.774;2023-10-08T04:43:35;2.07;;;1.70;;
12970;SDS011;6550;48.650;8.774;2023-10-08T04:46:05;2.50;;;1.83;;
12970;SDS011;6550;48.650;8.774;2023-10-08T04:48:46;2.15;;;1.75;;
12970;SDS011;6550;48.650;8.774;2023-10-08T04:51:13;1.67;;;1.40;;
12970;SDS011;6550;48.650;8.774;2023-10-08T04:53:40;2.00;;;1.80;;
12970;SDS011;6550;48.650;8.774;2023-10-08T04:56:08;2.77;;;1.70;;
12970;SDS011;6550;48.650;8.774;2023-10-08T04:58:46;2.23;;;1.57;;
12970;SDS011;6550;48.650;8.774;2023-10-08T05:01:14;4.60;;;1.70;;
12970;SDS011;6550;48.650;8.774;2023-10-08T05:04:04;2.20;;;1.63;;
12970;SDS011;6550;48.650;8.774;2023-10-08T05:06:34;2.00;;;1.53;;
12970;SDS011;6550;48.650;8.774;2023-10-08T05:09:09;1.70;;;1.60;;
12970;SDS011;6550;48.650;8.774;2023-10-08T05:11:40;5.93;;;1.80;;
12970;SDS011;6550;48.650;8.774;2023-10-08T05:14:24;1.80;;;1.52;;
12970;SDS011;6550;48.650;8.774;2023-10-08T05:17:04;3.07;;;1.50;;
12970;SDS011;6550;48.650;8.774;2023-10-08T05:19:44;2.77;;;1.60;;
12970;SDS011;6550;48.650;8.774;2023-10-08T05:22:26;1.60;;;1.40;;
12970;SDS011;6550;48.650;8.774;2023-10-08T05:24:56;2.47;;;2.03;;
12970;SDS011;6550;48.650;8.774;2023-10-08T05:27:42;4.47;;;1.60;;
12970;SDS011;6550;48.650;8.774;2023-10-08T05:30:33;1.67;;;1.50;;
12970;SDS011;6550;48.650;8.774;2023-10-08T05:33:05;3.80;;;1.80;;
12970;SDS011;6550;48.650;8.774;2023-10-08T05:35:39;2.37;;;1.70;;
12970;SDS011;6550;48.650;8.774;2023-10-08T05:38:08;2.63;;;2.00;;
12970;SDS011;6550;48.650;8.774;2023-10-08T05:40:53;2.77;;;1.70;;
12970;SDS011;6550;48.650;8.774;2023-10-08T05:43:29;2.70;;;1.77;;
12970;SDS011;6550;48.650;8.774;2023-10-08T05:46:15;2.20;;;1.37;;
12970;SDS011;6550;48.650;8.774;2023-10-08T05:49:02;1.87;;;1.40;;
12970;SDS011;6550;48.650;8.774;2023-10-08T05:51:32;1.97;;;1.50;;
12970;SDS011;6550;48.650;8.774;2023-10-08T05:54:18;2.33;;;1.80;;
12970;SDS011;6550;48.650;8.774;2023-10-08T05:56:57;2.37;;;1.40;;
12970;SDS011;6550;48.650;8.774;2023-10-08T06:02:31;2.77;;;1.30;;
12970;SDS011;6550;48.650;8.774;2023-10-08T06:10:26;1.87;;;1.50;;
12970;SDS011;6550;48.650;8.774;2023-10-08T06:15:36;3.57;;;1.87;;
12970;SDS011;6550;48.650;8.774;2023-10-08T06:18:26;2.53;;;1.47;;
12970;SDS011;6550;48.650;8.774;2023-10-08T06:23:27;2.87;;;1.73;;
12970;SDS011;6550;48.650;8.774;2023-10-08T06:25:58;2.63;;;1.75;;
12970;SDS011;6550;48.650;8.774;2023-10-08T06:28:32;2.67;;;1.77;;
12970;SDS011;6550;48.650;8.774;2023-10-08T06:31:01;2.73;;;1.90;;
12970;SDS011;6550;48.650;8.774;2023-10-08T06:33:33;2.67;;;2.00;;
12970;SDS011;6550;48.650;8.774;2023-10-08T06:36:00;3.63;;;1.57;;
12970;SDS011;6550;48.650;8.774;2023-10-08T06:38:40;2.67;;;1.43;;
12970;SDS011;6550;48.650;8.774;2023-10-08T06:41:15;2.20;;;1.60;;
12970;SDS011;6550;48.650;8.774;2023-10-08T06:44:04;5.30;;;2.53;;
12970;SDS011;6550;48.650;8.774;2023-10-08T06:46:41;2.27;;;1.50;;
12970;SDS011;6550;48.650;8.774;2023-10-08T06:49:08;3.13;;;1.97;;
12970;SDS011;6550;48.650;8.774;2023-10-08T06:51:41;2.83;;;2.10;;
12970;SDS011;6550;48.650;8.774;2023-10-08T06:54:11;2.53;;;2.07;;
12970;SDS011;6550;48.650;8.774;2023-10-08T06:56:46;3.33;;;2.33;;
12970;SDS011;6550;48.650;8.774;2023-10-08T06:59:18;2.60;;;2.23;;
12970;SDS011;6550;48.650;8.774;2023-10-08T07:01:48;2.90;;;2.40;;
12970;SDS011;6550;48.650;8.774;2023-10-08T07:04:20;4.00;;;2.50;;
12970;SDS011;6550;48.650;8.774;2023-10-08T07:06:49;8.03;;;2.77;;
12970;SDS011;6550;48.650;8.774;2023-10-08T07:09:20;8.00;;;3.03;;
12970;SDS011;6550;48.650;8.774;2023-10-08T07:11:56;2.87;;;2.30;;
12970;SDS011;6550;48.650;8.774;2023-10-08T07:14:24;5.20;;;2.40;;
12970;SDS011;6550;48.650;8.774;2023-10-08T07:19:25;3.43;;;2.20;;
12970;SDS011;6550;48.650;8.774;2023-10-08T07:22:07;2.73;;;2.20;;
12970;SDS011;6550;48.650;8.774;2023-10-08T07:24:55;6.47;;;2.60;;
12970;SDS011;6550;48.650;8.774;2023-10-08T07:27:25;4.77;;;2.30;;
12970;SDS011;6550;48.650;8.774;2023-10-08T07:29:59;4.73;;;2.63;;
12970;SDS011;6550;48.650;8.774;2023-10-08T07:32:29;4.00;;;2.33;;
12970;SDS011;6550;48.650;8.774;2023-10-08T07:35:01;4.53;;;2.47;;
12970;SDS011;6550;48.650;8.774;2023-10-08T07:37:53;4.22;;;2.50;;
12970;SDS011;6550;48.650;8.774;2023-10-08T07:40:23;5.07;;;2.20;;
12970;SDS011;6550;48.650;8.774;2023-10-08T07:42:55;4.60;;;2.60;;
12970;SDS011;6550;48.650;8.774;2023-10-08T07:45:22;6.10;;;3.00;;
12970;SDS011;6550;48.650;8.774;2023-10-08T07:47:51;2.80;;;2.30;;
12970;SDS011;6550;48.650;8.774;2023-10-08T07:50:21;5.57;;;2.73;;
12970;SDS011;6550;48.650;8.774;2023-10-08T07:52:50;3.23;;;2.47;;
12970;SDS011;6550;48.650;8.774;2023-10-08T07:55:20;3.93;;;2.77;;
12970;SDS011;6550;48.650;8.774;2023-10-08T07:57:51;3.07;;;2.63;;
12970;SDS011;6550;48.650;8.774;2023-10-08T08:00:20;2.67;;;2.37;;
12970;SDS011;6550;48.650;8.774;2023-10-08T08:02:54;3.63;;;2.60;;
12970;SDS011;6550;48.650;8.774;2023-10-08T08:05:24;2.87;;;2.40;;
12970;SDS011;6550;48.650;8.774;2023-10-08T08:07:53;2.60;;;2.30;;
12970;SDS011;6550;48.650;8.774;2023-10-08T08:10:23;3.77;;;2.50;;
12970;SDS011;6550;48.650;8.774;2023-10-08T08:12:52;3.90;;;2.53;;
12970;SDS011;6550;48.650;8.774;2023-10-08T08:15:23;3.23;;;2.60;;
12970;SDS011;6550;48.650;8.774;2023-10-08T08:17:55;4.53;;;2.30;;
12970;SDS011;6550;48.650;8.774;2023-10-08T08:20:22;5.37;;;2.80;;
12970;SDS011;6550;48.650;8.774;2023-10-08T08:23:11;4.80;;;2.67;;
12970;SDS011;6550;48.650;8.774;2023-10-08T08:25:42;2.97;;;2.33;;
12970;SDS011;6550;48.650;8.774;2023-10-08T08:28:12;4.63;;;2.60;;
12970;SDS011;6550;48.650;8.774;2023-10-08T08:30:47;4.73;;;2.20;;
12970;SDS011;6550;48.650;8.774;2023-10-08T08:33:19;3.77;;;2.77;;
12970;SDS011;6550;48.650;8.774;2023-10-08T08:35:59;4.10;;;2.63;;
12970;SDS011;6550;48.650;8.774;2023-10-08T08:38:32;2.80;;;2.30;;
12970;SDS011;6550;48.650;8.774;2023-10-08T08:41:07;3.43;;;2.50;;
12970;SDS011;6550;48.650;8.774;2023-10-08T08:43:34;5.60;;;2.97;;
12970;SDS011;6550;48.650;8.774;2023-10-08T08:46:05;5.07;;;2.67;;
12970;SDS011;6550;48.650;8.774;2023-10-08T08:48:33;5.57;;;3.15;;
12970;SDS011;6550;48.650;8.774;2023-10-08T08:51:02;4.50;;;3.00;;
12970;SDS011;6550;48.650;8.774;2023-10-08T08:53:32;3.40;;;2.67;;
12970;SDS011;6550;48.650;8.774;2023-10-08T08:56:08;4.37;;;2.60;;
12970;SDS011;6550;48.650;8.774;2023-10-08T08:58:38;4.23;;;2.57;;
12970;SDS011;6550;48.650;8.774;2023-10-08T09:01:11;4.50;;;2.97;;
12970;SDS011;6550;48.650;8.774;2023-10-08T09:03:43;3.43;;;2.53;;
12970;SDS011;6550;48.650;8.774;2023-10-08T09:06:14;3.63;;;3.00;;
12970;SDS011;6550;48.650;8.774;2023-10-08T09:08:41;5.03;;;3.25;;
12970;SDS011;6550;48.650;8.774;2023-10-08T09:11:16;4.33;;;3.07;;
12970;SDS011;6550;48.650;8.774;2023-10-08T09:13:43;5.90;;;3.23;;
12970;SDS011;6550;48.650;8.774;2023-10-08T09:18:44;5.63;;;3.17;;
12970;SDS011;6550;48.650;8.774;2023-10-08T09:21:14;4.50;;;3.20;;
12970;SDS011;6550;48.650;8.774;2023-10-08T09:23:49;7.03;;;3.63;;
12970;SDS011;6550;48.650;8.774;2023-10-08T09:26:17;5.80;;;3.43;;
12970;SDS011;6550;48.650;8.774;2023-10-08T09:28:45;6.40;;;3.43;;
12970;SDS011;6550;48.650;8.774;2023-10-08T09:31:15;4.57;;;3.00;;
12970;SDS011;6550;48.650;8.774;2023-10-08T09:33:52;5.55;;;3.65;;
12970;SDS011;6550;48.650;8.774;2023-10-08T09:36:20;4.83;;;3.13;;
12970;SDS011;6550;48.650;8.774;2023-10-08T09:39:01;4.40;;;3.17;;
12970;SDS011;6550;48.650;8.774;2023-10-08T09:41:33;4.03;;;3.00;;
12970;SDS011;6550;48.650;8.774;2023-10-08T09:44:01;4.27;;;3.40;;
12970;SDS011;6550;48.650;8.774;2023-10-08T09:46:31;5.83;;;3.40;;
12970;SDS011;6550;48.650;8.774;2023-10-08T09:49:04;5.97;;;3.13;;
12970;SDS011;6550;48.650;8.774;2023-10-08T09:51:35;6.80;;;3.50;;
12970;SDS011;6550;48.650;8.774;2023-10-08T09:54:10;5.67;;;3.03;;
12970;SDS011;6550;48.650;8.774;2023-10-08T09:56:41;4.20;;;2.80;;
12970;SDS011;6550;48.650;8.774;2023-10-08T09:59:13;6.47;;;3.40;;
12970;SDS011;6550;48.650;8.774;2023-10-08T10:01:42;6.47;;;3.00;;
12970;SDS011;6550;48.650;8.774;2023-10-08T10:04:11;5.90;;;2.93;;
12970;SDS011;6550;48.650;8.774;2023-10-08T10:06:41;6.97;;;3.43;;
12970;SDS011;6550;48.650;8.774;2023-10-08T10:09:11;6.57;;;2.77;;
12970;SDS011;6550;48.650;8.774;2023-10-08T10:11:51;3.63;;;2.93;;
12970;SDS011;6550;48.650;8.774;2023-10-08T10:14:23;9.67;;;3.27;;
12970;SDS011;6550;48.650;8.774;2023-10-08T10:17:12;6.60;;;3.20;;
12970;SDS011;6550;48.650;8.774;2023-10-08T10:20:06;5.30;;;3.10;;
12970;SDS011;6550;48.650;8.774;2023-10-08T10:22:41;7.13;;;3.27;;
12970;SDS011;6550;48.650;8.774;2023-10-08T10:25:10;4.43;;;2.93;;
12970;SDS011;6550;48.650;8.774;2023-10-08T10:30:17;9.07;;;2.73;;
12970;SDS011;6550;48.650;8.774;2023-10-08T10:32:52;6.90;;;3.10;;
12970;SDS011;6550;48.650;8.774;2023-10-08T10:35:26;9.50;;;2.80;;
12970;SDS011;6550;48.650;8.774;2023-10-08T10:37:56;4.43;;;2.13;;
12970;SDS011;6550;48.650;8.774;2023-10-08T10:40:30;6.70;;;2.53;;
12970;SDS011;6550;48.650;8.774;2023-10-08T10:43:08;9.57;;;2.77;;
12970;SDS011;6550;48.650;8.774;2023-10-08T10:45:42;11.60;;;2.93;;
12970;SDS011;6550;48.650;8.774;2023-10-08T10:48:10;8.33;;;2.87;;
12970;SDS011;6550;48.650;8.774;2023-10-08T10:50:46;8.30;;;2.90;;
12970;SDS011;6550;48.650;8.774;2023-10-08T10:53:38;12.90;;;3.60;;
12970;SDS011;6550;48.650;8.774;2023-10-08T10:56:26;11.10;;;3.00;;
12970;SDS011;6550;48.650;8.774;2023-10-08T10:59:02;9.57;;;2.77;;
12970;SDS011;6550;48.650;8.774;2023-10-08T11:01:44;10.67;;;3.03;;
12970;SDS011;6550;48.650;8.774;2023-10-08T11:04:19;7.70;;;2.63;;
12970;SDS011;6550;48.650;8.774;2023-10-08T11:06:57;8.53;;;2.77;;
12970;SDS011;6550;48.650;8.774;2023-10-08T11:09:30;9.53;;;3.00;;
12970;SDS011;6550;48.650;8.774;2023-10-08T11:12:06;11.23;;;2.80;;
12970;SDS011;6550;48.650;8.774;2023-10-08T11:14:39;9.25;;;3.15;;
12970;SDS011;6550;48.650;8.774;2023-10-08T11:17:13;10.30;;;2.80;;
12970;SDS011;6550;48.650;8.774;2023-10-08T11:19:43;10.10;;;2.87;;
12970;SDS011;6550;48.650;8.774;2023-10-08T11:22:12;9.93;;;3.47;;
12970;SDS011;6550;48.650;8.774;2023-10-08T11:24:45;12.63;;;3.03;;
12970;SDS011;6550;48.650;8.774;2023-10-08T11:27:20;18.77;;;2.87;;
12970;SDS011;6550;48.650;8.774;2023-10-08T11:30:01;8.40;;;2.63;;
12970;SDS011;6550;48.650;8.774;2023-10-08T11:32:38;9.03;;;2.90;;
12970;SDS011;6550;48.650;8.774;2023-10-08T11:35:14;10.73;;;2.80;;
12970;SDS011;6550;48.650;8.774;2023-10-08T11:37:47;12.03;;;2.60;;
12970;SDS011;6550;48.650;8.774;2023-10-08T11:40:21;9.70;;;3.03;;
12970;SDS011;6550;48.650;8.774;2023-10-08T11:42:56;7.10;;;2.27;;
12970;SDS011;6550;48.650;8.774;2023-10-08T11:45:29;10.70;;;2.87;;
12970;SDS011;6550;48.650;8.774;2023-10-08T11:48:05;10.83;;;2.47;;
12970;SDS011;6550;48.650;8.774;2023-10-08T11:50:38;15.87;;;3.30;;
12970;SDS011;6550;48.650;8.774;2023-10-08T11:53:07;11.50;;;3.30;;
12970;SDS011;6550;48.650;8.774;2023-10-08T11:55:34;12.33;;;2.73;;
12970;SDS011;6550;48.650;8.774;2023-10-08T11:58:03;8.43;;;3.27;;
12970;SDS011;6550;48.650;8.774;2023-10-08T12:00:44;8.07;;;2.83;;
12970;SDS011;6550;48.650;8.774;2023-10-08T12:03:15;11.67;;;2.97;;
12970;SDS011;6550;48.650;8.774;2023-10-08T12:05:47;10.00;;;2.80;;
12970;SDS011;6550;48.650;8.774;2023-10-08T12:08:17;7.87;;;3.10;;
12970;SDS011;6550;48.650;8.774;2023-10-08T12:10:47;10.10;;;2.63;;
12970;SDS011;6550;48.650;8.774;2023-10-08T12:13:23;7.17;;;2.60;;
12970;SDS011;6550;48.650;8.774;2023-10-08T12:15:55;17.73;;;3.07;;
12970;SDS011;6550;48.650;8.774;2023-10-08T12:18:41;10.98;;;3.15;;
12970;SDS011;6550;48.650;8.774;2023-10-08T12:21:10;12.37;;;3.30;;
12970;SDS011;6550;48.650;8.774;2023-10-08T12:23:37;11.77;;;2.77;;
12970;SDS011;6550;48.650;8.774;2023-10-08T12:26:04;7.53;;;2.77;;
12970;SDS011;6550;48.650;8.774;2023-10-08T12:28:34;11.00;;;3.67;;
12970;SDS011;6550;48.650;8.774;2023-10-08T12:31:06;11.02;;;2.80;;
12970;SDS011;6550;48.650;8.774;2023-10-08T12:33:36;8.07;;;2.67;;
12970;SDS011;6550;48.650;8.774;2023-10-08T12:36:03;11.30;;;2.67;;
12970;SDS011;6550;48.650;8.774;2023-10-08T12:38:40;7.93;;;3.00;;
12970;SDS011;6550;48.650;8.774;2023-10-08T12:41:11;9.93;;;3.07;;
12970;SDS011;6550;48.650;8.774;2023-10-08T12:43:43;11.70;;;2.90;;
12970;SDS011;6550;48.650;8.774;2023-10-08T12:46:12;17.83;;;2.60;;
12970;SDS011;6550;48.650;8.774;2023-10-08T12:48:45;8.73;;;2.73;;
12970;SDS011;6550;48.650;8.774;2023-10-08T12:51:19;10.60;;;2.40;;
12970;SDS011;6550;48.650;8.774;2023-10-08T12:53:53;8.70;;;2.57;;
12970;SDS011;6550;48.650;8.774;2023-10-08T12:56:32;6.07;;;2.60;;
12970;SDS011;6550;48.650;8.774;2023-10-08T12:59:02;14.85;;;3.08;;
12970;SDS011;6550;48.650;8.774;2023-10-08T13:01:33;8.53;;;2.23;;
12970;SDS011;6550;48.650;8.774;2023-10-08T13:04:07;12.97;;;2.40;;
12970;SDS011;6550;48.650;8.774;2023-10-08T13:06:42;7.13;;;2.50;;
12970;SDS011;6550;48.650;8.774;2023-10-08T13:09:12;11.38;;;2.20;;
12970;SDS011;6550;48.650;8.774;2023-10-08T13:11:39;11.20;;;2.83;;
12970;SDS011;6550;48.650;8.774;2023-10-08T13:14:06;12.23;;;2.53;;
12970;SDS011;6550;48.650;8.774;2023-10-08T13:16:40;11.33;;;2.93;;
12970;SDS011;6550;48.650;8.774;2023-10-08T13:19:07;12.67;;;2.67;;
12970;SDS011;6550;48.650;8.774;2023-10-08T13:21:35;213.73;;;14.03;;
12970;SDS011;6550;48.650;8.774;2023-10-08T13:24:05;226.40;;;14.67;;
12970;SDS011;6550;48.650;8.774;2023-10-08T13:26:36;245.30;;;15.30;;
12970;SDS011;6550;48.650;8.774;2023-10-08T13:29:07;360.03;;;22.93;;
12970;SDS011;6550;48.650;8.774;2023-10-08T13:31:37;289.40;;;18.87;;
12970;SDS011;6550;48.650;8.774;2023-10-08T13:34:10;257.97;;;17.53;;
12970;SDS011;6550;48.650;8.774;2023-10-08T13:36:42;130.40;;;10.90;;
12970;SDS011;6550;48.650;8.774;2023-10-08T13:39:13;123.23;;;8.90;;
12970;SDS011;6550;48.650;8.774;2023-10-08T13:41:45;120.07;;;8.67;;
12970;SDS011;6550;48.650;8.774;2023-10-08T13:44:19;134.83;;;13.23;;
12970;SDS011;6550;48.650;8.774;2023-10-08T13:46:56;81.87;;;8.00;;
12970;SDS011;6550;48.650;8.774;2023-10-08T13:49:25;78.23;;;8.73;;
12970;SDS011;6550;48.650;8.774;2023-10-08T13:51:52;82.37;;;7.23;;
12970;SDS011;6550;48.650;8.774;2023-10-08T13:54:25;51.37;;;6.03;;
12970;SDS011;6550;48.650;8.774;2023-10-08T13:56:56;67.20;;;6.73;;
12970;SDS011;6550;48.650;8.774;2023-10-08T13:59:30;62.70;;;6.67;;
12970;SDS011;6550;48.650;8.774;2023-10-08T14:02:01;46.37;;;6.23;;
12970;SDS011;6550;48.650;8.774;2023-10-08T14:04:35;50.50;;;6.33;;
12970;SDS011;6550;48.650;8.774;2023-10-08T14:07:06;39.63;;;5.57;;
12970;SDS011;6550;48.650;8.774;2023-10-08T14:09:34;23.33;;;4.07;;
12970;SDS011;6550;48.650;8.774;2023-10-08T14:12:04;25.00;;;4.17;;
12970;SDS011;6550;48.650;8.774;2023-10-08T14:14:39;29.40;;;4.07;;
12970;SDS011;6550;48.650;8.774;2023-10-08T14:17:17;21.07;;;3.77;;
12970;SDS011;6550;48.650;8.774;2023-10-08T14:20:10;13.97;;;2.83;;
12970;SDS011;6550;48.650;8.774;2023-10-08T14:22:48;29.73;;;3.70;;
12970;SDS011;6550;48.650;8.774;2023-10-08T14:25:26;18.00;;;3.40;;
12970;SDS011;6550;48.650;8.774;2023-10-08T14:28:00;17.87;;;2.97;;
12970;SDS011;6550;48.650;8.774;2023-10-08T14:30:31;15.70;;;3.17;;
12970;SDS011;6550;48.650;8.774;2023-10-08T14:33:12;17.03;;;3.20;;
12970;SDS011;6550;48.650;8.774;2023-10-08T14:35:50;12.30;;;2.90;;
12970;SDS011;6550;48.650;8.774;2023-10-08T14:38:36;13.88;;;3.35;;
12970;SDS011;6550;48.650;8.774;2023-10-08T14:41:25;8.83;;;3.13;;
12970;SDS011;6550;48.650;8.774;2023-10-08T14:44:11;10.40;;;2.90;;
12970;SDS011;6550;48.650;8.774;2023-10-08T14:46:41;12.87;;;3.03;;
12970;SDS011;6550;48.650;8.774;2023-10-08T14:49:10;12.67;;;3.37;;
12970;SDS011;6550;48.650;8.774;2023-10-08T14:51:41;14.37;;;3.00;;
12970;SDS011;6550;48.650;8.774;2023-10-08T14:54:12;13.23;;;2.77;;
12970;SDS011;6550;48.650;8.774;2023-10-08T14:56:39;14.47;;;2.63;;
12970;SDS011;6550;48.650;8.774;2023-10-08T14:59:06;12.47;;;3.03;;
12970;SDS011;6550;48.650;8.774;2023-10-08T15:01:33;10.20;;;2.77;;
12970;SDS011;6550;48.650;8.774;2023-10-08T15:04:00;12.57;;;2.90;;
12970;SDS011;6550;48.650;8.774;2023-10-08T15:06:31;17.60;;;3.00;;
12970;SDS011;6550;48.650;8.774;2023-10-08T15:09:01;13.73;;;3.00;;
12970;SDS011;6550;48.650;8.774;2023-10-08T15:11:28;14.03;;;3.20;;
12970;SDS011;6550;48.650;8.774;2023-10-08T15:14:02;11.13;;;2.97;;
12970;SDS011;6550;48.650;8.774;2023-10-08T15:16:38;12.63;;;2.80;;
12970;SDS011;6550;48.650;8.774;2023-10-08T15:19:14;12.00;;;2.60;;
12970;SDS011;6550;48.650;8.774;2023-10-08T15:21:41;12.07;;;2.70;;
12970;SDS011;6550;48.650;8.774;2023-10-08T15:24:09;9.03;;;2.70;;
12970;SDS011;6550;48.650;8.774;2023-10-08T15:26:40;9.63;;;3.17;;
12970;SDS011;6550;48.650;8.774;2023-10-08T15:29:11;9.47;;;2.30;;
12970;SDS011;6550;48.650;8.774;2023-10-08T15:31:40;12.90;;;3.20;;
12970;SDS011;6550;48.650;8.774;2023-10-08T15:34:11;13.33;;;3.47;;
12970;SDS011;6550;48.650;8.774;2023-10-08T15:36:58;18.43;;;3.00;;
12970;SDS011;6550;48.650;8.774;2023-10-08T15:39:25;11.97;;;2.77;;
12970;SDS011;6550;48.650;8.774;2023-10-08T15:41:56;10.03;;;2.90;;
12970;SDS011;6550;48.650;8.774;2023-10-08T15:44:24;12.83;;;3.23;;
12970;SDS011;6550;48.650;8.774;2023-10-08T15:46:50;16.67;;;3.80;;
12970;SDS011;6550;48.650;8.774;2023-10-08T15:49:20;12.47;;;3.23;;
12970;SDS011;6550;48.650;8.774;2023-10-08T15:51:49;10.93;;;3.20;;
12970;SDS011;6550;48.650;8.774;2023-10-08T15:54:18;10.47;;;3.60;;